Terminal Aerodrome Forecast
Issued by NWS

Home | Current Version | Previous Version | Text Only | Print | Product List | Glossary On
Versions: 1 2 3 4 5 6 7 8 9 10 11 12 13 14 15 16 17 18 19 20 21 22
000
FTUS41 KBTV 240100 AAA
TAFSLK
TAF AMD
KSLK 240113Z 2401/2424 VRB02KT P6SM BKN020
      TEMPO 2401/2402 OVC007
     FM240200 00000KT 3SM BR SCT001 BKN020
      TEMPO 2402/2406 2SM BR BKN001
     FM240600 00000KT 1/2SM FG VV001
     FM241300 19005KT P6SM SCT035=

USA.gov is the U.S. government's official web portal to all federal, state and local government web resources and services.